createdAt,value
2018-05-25T00:00:49.811Z,15.50
2018-05-25T00:03:17.369Z,15.70
2018-05-25T00:05:44.981Z,15.80
2018-05-25T00:08:12.528Z,15.70
2018-05-25T00:10:40.843Z,15.40
2018-05-25T00:13:08.424Z,15.40
2018-05-25T00:15:35.988Z,15.30
2018-05-25T00:18:03.544Z,15.20
2018-05-25T00:20:31.126Z,15.10
2018-05-25T00:22:58.691Z,15.00
2018-05-25T00:25:26.258Z,14.90
2018-05-25T00:27:53.851Z,14.90
2018-05-25T00:30:21.404Z,15.00
2018-05-25T00:32:49.735Z,14.90
2018-05-25T00:35:17.317Z,14.90
2018-05-25T00:37:44.875Z,14.80
2018-05-25T00:40:12.433Z,14.80
2018-05-25T00:42:40.029Z,14.70
2018-05-25T00:45:07.590Z,14.70
2018-05-25T00:47:35.376Z,14.70
2018-05-25T00:50:03.466Z,14.70
2018-05-25T00:52:31.025Z,14.70
2018-05-25T00:55:35.345Z,14.70
2018-05-25T00:58:02.900Z,14.70
2018-05-25T01:00:30.455Z,14.70
2018-05-25T01:02:58.045Z,14.80
2018-05-25T01:05:25.605Z,14.80
2018-05-25T01:07:53.176Z,14.80
2018-05-25T01:10:22.464Z,14.80
2018-05-25T01:12:50.016Z,14.80
2018-05-25T01:15:17.578Z,15.00
2018-05-25T01:17:45.159Z,15.00
2018-05-25T01:20:12.711Z,15.00
2018-05-25T01:22:40.273Z,15.00
2018-05-25T01:25:07.859Z,15.00
2018-05-25T01:27:35.422Z,15.00
2018-05-25T01:30:02.985Z,14.90
2018-05-25T01:32:30.620Z,14.90
2018-05-25T01:34:58.173Z,14.90
2018-05-25T01:37:25.727Z,14.90
2018-05-25T01:39:53.310Z,14.90
2018-05-25T01:42:20.870Z,14.90
2018-05-25T01:44:48.430Z,14.90
2018-05-25T01:47:16.017Z,15.00
2018-05-25T01:49:43.577Z,15.00
2018-05-25T01:52:11.130Z,15.10
2018-05-25T01:54:38.719Z,15.10
2018-05-25T01:57:07.040Z,15.10
2018-05-25T01:59:34.599Z,15.10
2018-05-25T02:02:02.189Z,15.20
2018-05-25T02:04:29.745Z,15.10
2018-05-25T02:06:57.303Z,15.10
2018-05-25T02:09:24.895Z,15.00
2018-05-25T02:11:53.221Z,15.00
2018-05-25T02:14:20.781Z,15.00
2018-05-25T02:16:48.872Z,15.00
2018-05-25T02:19:16.435Z,15.00
2018-05-25T02:21:44.001Z,14.90
2018-05-25T02:24:11.592Z,14.90
2018-05-25T02:26:39.915Z,15.10
2018-05-25T02:29:07.464Z,15.00
2018-05-25T02:31:35.052Z,15.10
2018-05-25T02:34:02.614Z,15.10
2018-05-25T02:36:30.174Z,15.10
2018-05-25T02:38:57.780Z,15.00
2018-05-25T02:41:25.390Z,15.00
2018-05-25T02:43:52.948Z,15.00
2018-05-25T02:46:20.546Z,14.90
2018-05-25T02:48:48.103Z,14.90
2018-05-25T02:51:15.660Z,14.80
2018-05-25T02:53:43.247Z,14.90
2018-05-25T02:56:11.619Z,14.90
2018-05-25T02:58:39.136Z,14.90
2018-05-25T03:01:07.319Z,14.80
2018-05-25T03:03:34.872Z,14.80
2018-05-25T03:06:02.432Z,14.80
2018-05-25T03:08:30.016Z,14.80
2018-05-25T03:10:57.578Z,14.70
2018-05-25T03:13:26.514Z,14.80
2018-05-25T03:15:55.147Z,14.80
2018-05-25T03:18:22.702Z,14.80
2018-05-25T03:20:50.259Z,14.70
2018-05-25T03:23:17.871Z,14.70
2018-05-25T03:25:46.198Z,14.60
2018-05-25T03:28:13.791Z,14.60
2018-05-25T03:30:41.378Z,14.60
2018-05-25T03:33:09.700Z,14.70
2018-05-25T03:35:37.259Z,14.70
2018-05-25T03:38:04.847Z,14.70
2018-05-25T03:40:32.402Z,14.70
2018-05-25T03:42:59.956Z,14.70
2018-05-25T03:45:27.593Z,14.70
2018-05-25T03:47:55.150Z,14.70
2018-05-25T03:50:22.705Z,14.70
2018-05-25T03:52:50.299Z,14.60
2018-05-25T03:55:17.858Z,14.70
2018-05-25T03:57:45.416Z,14.70
2018-05-25T04:00:50.673Z,14.70
2018-05-25T04:03:18.246Z,14.70
2018-05-25T04:05:45.806Z,14.70
2018-05-25T04:08:13.395Z,14.80
2018-05-25T04:10:41.733Z,15.00
2018-05-25T04:13:09.288Z,15.00
2018-05-25T04:15:36.877Z,15.00
2018-05-25T04:18:04.434Z,15.00
2018-05-25T04:20:31.988Z,14.90
2018-05-25T04:22:59.608Z,14.90
2018-05-25T04:25:27.160Z,15.00
2018-05-25T04:27:54.721Z,15.20
2018-05-25T04:30:22.314Z,15.20
2018-05-25T04:32:49.898Z,15.10
2018-05-25T04:35:17.451Z,15.10
2018-05-25T04:37:45.043Z,15.00
2018-05-25T04:40:12.594Z,15.00
2018-05-25T04:42:40.178Z,15.10
2018-05-25T04:45:07.755Z,15.10
2018-05-25T04:47:35.350Z,15.00
2018-05-25T04:50:02.916Z,15.00
2018-05-25T04:52:30.555Z,15.00
2018-05-25T04:54:58.838Z,14.90
2018-05-25T04:57:26.402Z,14.90
2018-05-25T04:59:54.033Z,14.90
2018-05-25T05:02:21.613Z,14.90
2018-05-25T05:04:49.198Z,14.90
2018-05-25T05:07:16.827Z,14.90
2018-05-25T05:09:44.391Z,14.90
2018-05-25T05:12:11.973Z,14.90
2018-05-25T05:14:39.577Z,14.90
2018-05-25T05:17:07.147Z,14.90
2018-05-25T05:19:35.475Z,15.00
2018-05-25T05:22:03.066Z,15.00
2018-05-25T05:24:30.624Z,15.00
2018-05-25T05:26:58.188Z,15.10
2018-05-25T05:29:25.777Z,15.10
2018-05-25T05:31:54.113Z,15.30
2018-05-25T05:34:21.668Z,15.20
2018-05-25T05:36:50.552Z,15.30
2018-05-25T05:39:18.112Z,15.30
2018-05-25T05:41:45.663Z,15.30
2018-05-25T05:44:13.259Z,15.30
2018-05-25T05:46:40.814Z,15.40
2018-05-25T05:49:08.373Z,15.40
2018-05-25T05:51:36.446Z,15.50
2018-05-25T05:54:03.995Z,15.60
2018-05-25T05:56:31.548Z,15.70
2018-05-25T05:58:59.945Z,15.70
2018-05-25T06:01:27.530Z,15.70
2018-05-25T06:03:55.089Z,15.80
2018-05-25T06:06:22.696Z,15.80
2018-05-25T06:08:50.253Z,15.90
2018-05-25T06:11:18.046Z,16.10
2018-05-25T06:13:46.844Z,16.10
2018-05-25T06:16:14.436Z,16.10
2018-05-25T06:18:41.991Z,16.10
2018-05-25T06:21:09.606Z,16.10
2018-05-25T06:23:37.160Z,16.30
2018-05-25T06:26:04.715Z,16.50
2018-05-25T06:28:32.360Z,16.40
2018-05-25T06:30:59.945Z,16.50
2018-05-25T06:33:27.460Z,16.40
2018-05-25T06:35:55.068Z,16.40
2018-05-25T06:38:22.622Z,16.40
2018-05-25T06:40:50.183Z,16.60
2018-05-25T06:43:17.788Z,16.60
2018-05-25T06:45:45.383Z,16.60
2018-05-25T06:48:12.904Z,16.60
2018-05-25T06:50:40.516Z,16.70
2018-05-25T06:53:08.051Z,16.70
2018-05-25T06:55:35.597Z,16.80
2018-05-25T06:58:03.277Z,16.80
2018-05-25T07:00:30.764Z,16.80
2018-05-25T07:02:59.094Z,17.00
2018-05-25T07:05:26.704Z,17.00
2018-05-25T07:07:55.026Z,17.10
2018-05-25T07:10:22.578Z,17.20
2018-05-25T07:12:50.213Z,17.20
2018-05-25T07:15:17.795Z,17.20
2018-05-25T07:17:45.351Z,17.20
2018-05-25T07:20:12.967Z,17.30
2018-05-25T07:22:42.147Z,17.30
2018-05-25T07:25:10.400Z,17.30
2018-05-25T07:27:38.046Z,17.30
2018-05-25T07:30:05.616Z,17.40
2018-05-25T07:32:33.169Z,17.40
2018-05-25T07:35:00.813Z,17.40
2018-05-25T07:37:28.367Z,17.50
2018-05-25T07:39:56.693Z,17.60
2018-05-25T07:42:24.328Z,17.60
2018-05-25T07:44:51.885Z,17.60
2018-05-25T07:47:19.469Z,17.70
2018-05-25T07:49:47.118Z,17.80
2018-05-25T07:52:15.020Z,17.80
2018-05-25T07:54:42.580Z,17.80
2018-05-25T07:57:10.180Z,17.90
2018-05-25T07:59:37.825Z,17.90
2018-05-25T08:02:05.372Z,17.90
2018-05-25T08:07:05.835Z,18.00
2018-05-25T08:09:33.402Z,18.00
2018-05-25T08:12:01.162Z,18.10
2018-05-25T08:14:28.635Z,18.10
2018-05-25T08:16:56.187Z,18.20
2018-05-25T08:19:23.837Z,18.20
2018-05-25T08:21:51.414Z,18.30
2018-05-25T08:24:18.983Z,18.40
2018-05-25T08:26:47.778Z,18.60
2018-05-25T08:29:15.741Z,18.60
2018-05-25T08:31:43.252Z,18.60
2018-05-25T08:34:10.897Z,18.70
2018-05-25T08:36:38.457Z,18.70
2018-05-25T08:39:06.158Z,18.80
2018-05-25T08:41:34.225Z,18.80
2018-05-25T08:44:01.905Z,18.90
2018-05-25T08:46:29.866Z,19.00
2018-05-25T08:48:57.472Z,19.10
2018-05-25T08:51:25.035Z,19.10
2018-05-25T08:53:53.366Z,19.30
2018-05-25T08:56:21.950Z,19.30
2018-05-25T08:58:49.530Z,19.40
2018-05-25T09:01:17.144Z,19.50
2018-05-25T09:03:45.262Z,19.60
2018-05-25T09:06:12.827Z,19.70
2018-05-25T09:08:40.385Z,19.90
2018-05-25T09:11:07.999Z,20.00
2018-05-25T09:13:35.563Z,20.10
2018-05-25T09:16:03.134Z,20.30
2018-05-25T09:18:30.786Z,20.40
2018-05-25T09:20:58.353Z,20.50
2018-05-25T09:23:25.915Z,20.70
2018-05-25T09:25:53.538Z,20.70
2018-05-25T09:28:21.132Z,20.80
2018-05-25T09:30:48.710Z,20.80
2018-05-25T09:33:16.287Z,20.80
2018-05-25T09:35:43.852Z,20.80
2018-05-25T09:38:11.415Z,20.90
2018-05-25T09:40:39.799Z,21.10
2018-05-25T09:43:07.365Z,21.10
2018-05-25T09:45:34.929Z,21.20
2018-05-25T09:48:02.887Z,21.40
2018-05-25T09:50:30.451Z,21.60
2018-05-25T09:52:58.005Z,21.70
2018-05-25T09:55:26.184Z,21.70
2018-05-25T09:57:56.443Z,21.70
2018-05-25T10:00:26.457Z,21.70
2018-05-25T10:02:54.103Z,21.80
2018-05-25T10:05:21.670Z,21.90
2018-05-25T10:07:49.246Z,22.00
2018-05-25T10:10:16.871Z,22.00
2018-05-25T10:12:45.552Z,22.20
2018-05-25T10:15:13.099Z,22.20
2018-05-25T10:17:40.707Z,22.20
2018-05-25T10:20:08.269Z,22.20
2018-05-25T10:22:35.837Z,22.20
2018-05-25T10:25:03.449Z,22.30
2018-05-25T10:27:31.022Z,22.40
2018-05-25T10:29:58.588Z,22.40
2018-05-25T10:32:26.250Z,22.50
2018-05-25T10:34:53.809Z,22.50
2018-05-25T10:37:21.369Z,22.60
2018-05-25T10:39:48.967Z,22.70
2018-05-25T10:42:16.528Z,22.70
2018-05-25T10:44:44.090Z,22.90
2018-05-25T10:47:11.762Z,22.90
2018-05-25T10:49:40.128Z,23.00
2018-05-25T10:52:07.669Z,23.00
2018-05-25T10:54:35.273Z,23.10
2018-05-25T10:57:03.594Z,23.20
2018-05-25T10:59:31.153Z,23.20
2018-05-25T11:01:58.755Z,23.30
2018-05-25T11:04:26.312Z,23.30
2018-05-25T11:06:53.867Z,23.40
2018-05-25T11:09:21.981Z,23.40
2018-05-25T11:11:49.541Z,23.50
2018-05-25T11:14:17.112Z,23.60
2018-05-25T11:16:45.465Z,23.70
2018-05-25T11:19:13.791Z,23.70
2018-05-25T11:21:41.355Z,23.70
2018-05-25T11:24:09.330Z,23.80
2018-05-25T11:26:38.126Z,23.80
2018-05-25T11:29:05.683Z,23.80
2018-05-25T11:31:33.290Z,23.90
2018-05-25T11:34:01.611Z,24.00
2018-05-25T11:36:29.183Z,24.00
2018-05-25T11:38:56.782Z,24.10
2018-05-25T11:41:24.334Z,24.20
2018-05-25T11:43:51.896Z,24.30
2018-05-25T11:46:19.984Z,24.30
2018-05-25T11:48:48.296Z,24.40
2018-05-25T11:51:15.857Z,24.40
2018-05-25T11:53:43.458Z,24.50
2018-05-25T11:56:11.082Z,24.60
2018-05-25T11:58:38.640Z,24.70
2018-05-25T12:01:06.249Z,24.90
2018-05-25T12:03:33.804Z,25.00
2018-05-25T12:06:01.368Z,25.10
2018-05-25T12:08:28.961Z,25.30
2018-05-25T12:10:57.283Z,25.30
2018-05-25T12:13:24.844Z,25.30
2018-05-25T12:15:53.432Z,25.30
2018-05-25T12:18:20.982Z,25.30
2018-05-25T12:20:48.538Z,25.40
2018-05-25T12:23:17.037Z,25.40
2018-05-25T12:25:44.587Z,25.50
2018-05-25T12:28:12.144Z,25.50
2018-05-25T12:30:40.643Z,25.50
2018-05-25T12:33:08.198Z,25.70
2018-05-25T12:35:35.767Z,25.70
2018-05-25T12:38:03.369Z,25.80
2018-05-25T12:40:30.934Z,25.90
2018-05-25T12:42:58.478Z,26.00
2018-05-25T12:45:26.087Z,26.10
2018-05-25T12:47:53.655Z,26.20
2018-05-25T12:50:21.215Z,26.30
2018-05-25T12:52:49.739Z,26.40
2018-05-25T12:55:17.307Z,26.40
2018-05-25T12:57:44.865Z,26.40
2018-05-25T13:00:12.813Z,26.30
2018-05-25T13:02:40.373Z,26.30
2018-05-25T13:05:07.926Z,26.40
2018-05-25T13:07:35.561Z,26.40
2018-05-25T13:10:03.091Z,26.50
2018-05-25T13:12:30.651Z,26.60
2018-05-25T13:14:58.288Z,26.70
2018-05-25T13:17:25.847Z,26.80
2018-05-25T13:19:53.406Z,26.90
2018-05-25T13:22:21.041Z,26.90
2018-05-25T13:24:48.603Z,26.90
2018-05-25T13:27:16.199Z,27.00
2018-05-25T13:29:43.790Z,27.10
2018-05-25T13:32:11.355Z,27.20
2018-05-25T13:34:39.671Z,27.30
2018-05-25T13:37:07.281Z,27.20
2018-05-25T13:39:34.842Z,27.30
2018-05-25T13:42:02.397Z,27.40
2018-05-25T13:44:30.448Z,27.60
2018-05-25T13:46:58.010Z,27.70
2018-05-25T13:49:25.570Z,27.90
2018-05-25T13:51:53.172Z,28.00
2018-05-25T13:54:21.493Z,28.30
2018-05-25T13:56:49.044Z,28.30
2018-05-25T13:59:16.641Z,28.40
2018-05-25T14:01:44.193Z,28.40
2018-05-25T14:04:11.747Z,28.30
2018-05-25T14:06:39.797Z,28.40
2018-05-25T14:09:07.694Z,28.40
2018-05-25T14:11:35.244Z,28.40
2018-05-25T14:14:02.845Z,28.50
2018-05-25T14:16:30.411Z,28.50
2018-05-25T14:18:57.960Z,28.60
2018-05-25T14:21:25.570Z,28.50
2018-05-25T14:23:53.128Z,28.50
2018-05-25T14:26:20.683Z,28.60
2018-05-25T14:28:48.289Z,28.60
2018-05-25T14:31:15.847Z,28.80
2018-05-25T14:33:43.405Z,29.00
2018-05-25T14:36:11.883Z,29.10
2018-05-25T14:38:39.435Z,29.00
2018-05-25T14:41:06.989Z,29.10
2018-05-25T14:43:34.956Z,29.20
2018-05-25T14:46:02.512Z,29.30
2018-05-25T14:48:30.061Z,29.40
2018-05-25T14:50:58.067Z,29.50
2018-05-25T14:53:25.625Z,29.60
2018-05-25T14:55:53.183Z,29.70
2018-05-25T14:58:20.793Z,29.80
2018-05-25T15:00:48.347Z,29.90
2018-05-25T15:03:17.528Z,30.00
2018-05-25T15:05:43.956Z,30.00
2018-05-25T15:08:11.511Z,30.10
2018-05-25T15:10:39.065Z,30.10
2018-05-25T15:13:06.665Z,30.20
2018-05-25T15:15:34.220Z,30.20
2018-05-25T15:18:01.775Z,30.20
2018-05-25T15:20:29.368Z,30.50
2018-05-25T15:22:57.684Z,30.70
2018-05-25T15:25:25.235Z,30.60
2018-05-25T15:27:52.885Z,30.70
2018-05-25T15:30:20.439Z,30.80
2018-05-25T15:32:48.766Z,31.10
2018-05-25T15:35:16.380Z,31.00
2018-05-25T15:37:44.700Z,31.10
2018-05-25T15:40:12.256Z,31.10
2018-05-25T15:42:39.891Z,31.10
2018-05-25T15:45:07.449Z,31.10
2018-05-25T15:47:34.997Z,31.10
2018-05-25T15:50:03.371Z,31.20
2018-05-25T15:52:31.693Z,31.40
2018-05-25T15:54:59.241Z,31.40
2018-05-25T15:57:27.449Z,31.50
2018-05-25T15:59:55.007Z,31.50
2018-05-25T16:02:22.608Z,31.50
2018-05-25T16:04:51.048Z,31.50
2018-05-25T16:07:18.599Z,31.50
2018-05-25T16:09:46.154Z,31.50
2018-05-25T16:12:14.989Z,31.50
2018-05-25T16:14:42.531Z,31.50
2018-05-25T16:17:10.085Z,31.60
2018-05-25T16:19:37.680Z,31.70
2018-05-25T16:22:05.231Z,31.70
2018-05-25T16:24:32.786Z,31.70
2018-05-25T16:27:00.452Z,31.80
2018-05-25T16:29:27.980Z,31.90
2018-05-25T16:31:55.532Z,32.00
2018-05-25T16:34:23.135Z,32.00
2018-05-25T16:36:52.162Z,32.10
2018-05-25T16:39:20.479Z,32.00
2018-05-25T16:41:48.097Z,32.00
2018-05-25T16:44:16.419Z,32.00
2018-05-25T16:46:43.974Z,32.00
2018-05-25T16:49:12.167Z,32.00
2018-05-25T16:51:39.726Z,31.90
2018-05-25T16:54:07.291Z,31.90
2018-05-25T16:56:35.265Z,32.00
2018-05-25T16:59:02.819Z,32.00
2018-05-25T17:01:30.397Z,32.00
2018-05-25T17:03:58.551Z,32.10
2018-05-25T17:06:26.116Z,32.20
2018-05-25T17:08:53.672Z,32.10
2018-05-25T17:11:21.276Z,32.10
2018-05-25T17:13:48.824Z,31.90
2018-05-25T17:16:16.382Z,31.80
2018-05-25T17:18:43.995Z,31.60
2018-05-25T17:21:11.551Z,31.60
2018-05-25T17:23:39.099Z,31.40
2018-05-25T17:26:06.696Z,31.10
2018-05-25T17:28:34.250Z,30.80
2018-05-25T17:31:01.803Z,30.60
2018-05-25T17:33:29.406Z,30.40
2018-05-25T17:35:56.953Z,30.10
2018-05-25T17:38:24.503Z,29.90
2018-05-25T17:40:52.109Z,29.60
2018-05-25T17:43:19.659Z,29.40
2018-05-25T17:45:47.240Z,29.20
2018-05-25T17:48:15.615Z,29.00
2018-05-25T17:50:43.174Z,29.00
2018-05-25T17:53:10.723Z,28.80
2018-05-25T17:55:38.332Z,28.70
2018-05-25T17:58:05.887Z,28.50
2018-05-25T18:00:33.436Z,28.50
2018-05-25T18:03:02.496Z,28.10
2018-05-25T18:05:30.049Z,28.20
2018-05-25T18:07:57.603Z,28.00
2018-05-25T18:10:25.607Z,27.90
2018-05-25T18:12:53.121Z,27.70
2018-05-25T18:15:20.678Z,27.60
2018-05-25T18:17:48.278Z,27.50
2018-05-25T18:20:15.841Z,27.30
2018-05-25T18:22:43.400Z,27.20
2018-05-25T18:25:11.008Z,27.20
2018-05-25T18:27:38.563Z,27.10
2018-05-25T18:30:06.110Z,27.00
2018-05-25T18:32:34.518Z,26.70
2018-05-25T18:35:02.809Z,26.40
2018-05-25T18:37:30.367Z,26.40
2018-05-25T18:39:57.996Z,26.20
2018-05-25T18:42:26.328Z,25.80
2018-05-25T18:44:53.896Z,25.80
2018-05-25T18:47:21.494Z,25.70
2018-05-25T18:49:49.056Z,25.50
2018-05-25T18:52:17.377Z,25.20
2018-05-25T18:54:46.682Z,25.20
2018-05-25T18:57:14.242Z,25.10
2018-05-25T18:59:41.801Z,24.90
2018-05-25T19:02:09.403Z,24.80
2018-05-25T19:04:36.966Z,24.60
2018-05-25T19:07:04.513Z,24.50
2018-05-25T19:09:32.111Z,24.30
2018-05-25T19:11:59.661Z,24.40
2018-05-25T19:14:27.220Z,24.20
2018-05-25T19:16:54.833Z,24.10
2018-05-25T19:19:22.397Z,23.90
2018-05-25T19:21:49.946Z,23.80
2018-05-25T19:24:18.549Z,23.60
2018-05-25T19:26:46.107Z,23.50
2018-05-25T19:29:13.664Z,23.30
2018-05-25T19:31:42.179Z,23.10
2018-05-25T19:34:09.735Z,23.00
2018-05-25T19:36:37.299Z,22.90
2018-05-25T19:39:07.751Z,22.70
2018-05-25T19:41:36.076Z,22.60
2018-05-25T19:44:03.685Z,22.60
2018-05-25T19:46:31.234Z,22.50
2018-05-25T19:48:58.785Z,22.30
2018-05-25T19:51:26.337Z,22.20
2018-05-25T19:53:53.946Z,22.10
2018-05-25T19:56:21.506Z,21.90
2018-05-25T19:58:49.057Z,21.80
2018-05-25T20:01:17.455Z,21.60
2018-05-25T20:03:45.009Z,21.60
2018-05-25T20:06:12.565Z,21.50
2018-05-25T20:08:40.944Z,21.30
2018-05-25T20:11:09.276Z,21.20
2018-05-25T20:13:36.830Z,21.20
2018-05-25T20:16:04.442Z,21.20
2018-05-25T20:18:31.987Z,21.10
2018-05-25T20:20:59.537Z,21.00
2018-05-25T20:23:27.190Z,20.90
2018-05-25T20:25:54.746Z,20.80
2018-05-25T20:28:22.307Z,20.70
2018-05-25T20:30:49.931Z,20.70
2018-05-25T20:33:17.491Z,20.60
2018-05-25T20:35:45.057Z,20.50
2018-05-25T20:38:12.650Z,20.40
2018-05-25T20:40:40.222Z,20.30
2018-05-25T20:43:09.309Z,20.20
2018-05-25T20:45:36.907Z,20.20
2018-05-25T20:48:05.227Z,20.00
2018-05-25T20:50:32.784Z,20.00
2018-05-25T20:53:00.393Z,20.00
2018-05-25T20:55:27.962Z,19.90
2018-05-25T20:57:55.515Z,19.80
2018-05-25T21:00:23.134Z,19.90
2018-05-25T21:02:50.729Z,19.90
2018-05-25T21:05:18.252Z,20.00
2018-05-25T21:07:45.861Z,19.90
2018-05-25T21:10:13.417Z,19.70
2018-05-25T21:12:40.967Z,19.60
2018-05-25T21:15:09.144Z,19.60
2018-05-25T21:17:36.693Z,19.70
2018-05-25T21:20:04.251Z,19.60
2018-05-25T21:22:32.391Z,19.40
2018-05-25T21:24:59.968Z,19.40
2018-05-25T21:27:27.530Z,19.30
2018-05-25T21:29:55.127Z,19.10
2018-05-25T21:32:22.816Z,19.10
2018-05-25T21:34:50.371Z,19.00
2018-05-25T21:37:18.844Z,18.90
2018-05-25T21:39:46.384Z,18.80
2018-05-25T21:42:13.950Z,18.80
2018-05-25T21:44:41.543Z,18.90
2018-05-25T21:47:09.870Z,18.90
2018-05-25T21:49:37.426Z,18.90
2018-05-25T21:52:05.419Z,18.70
2018-05-25T21:54:32.965Z,18.60
2018-05-25T21:57:00.522Z,18.50
2018-05-25T21:59:29.120Z,18.40
2018-05-25T22:01:56.692Z,18.30
2018-05-25T22:04:24.252Z,18.30
2018-05-25T22:06:51.863Z,18.20
2018-05-25T22:09:19.421Z,18.30
2018-05-25T22:11:47.754Z,18.30
2018-05-25T22:14:15.404Z,18.30
2018-05-25T22:16:42.999Z,18.20
2018-05-25T22:19:10.531Z,18.10
2018-05-25T22:21:38.122Z,18.10
2018-05-25T22:24:05.682Z,18.00
2018-05-25T22:26:33.238Z,17.90
2018-05-25T22:29:01.134Z,17.80
2018-05-25T22:31:29.454Z,18.00
2018-05-25T22:33:57.009Z,18.00
2018-05-25T22:36:24.601Z,17.90
2018-05-25T22:38:52.161Z,17.70
2018-05-25T22:41:19.716Z,17.60
2018-05-25T22:44:26.128Z,17.50
2018-05-25T22:47:30.640Z,17.40
2018-05-25T22:50:35.360Z,17.30
2018-05-25T22:53:20.541Z,17.30
2018-05-25T22:55:48.131Z,17.20
2018-05-25T22:58:15.701Z,17.10
2018-05-25T23:00:43.253Z,17.20
2018-05-25T23:03:11.627Z,17.20
2018-05-25T23:05:39.949Z,17.10
2018-05-25T23:08:07.547Z,17.10
2018-05-25T23:10:35.141Z,17.10
2018-05-25T23:13:02.689Z,17.00
2018-05-25T23:15:31.013Z,17.00
2018-05-25T23:17:58.609Z,16.90
2018-05-25T23:20:26.168Z,16.90
2018-05-25T23:22:53.730Z,16.80
2018-05-25T23:25:21.335Z,16.80
2018-05-25T23:27:48.899Z,16.90
2018-05-25T23:30:16.455Z,16.90
2018-05-25T23:32:44.061Z,16.80
2018-05-25T23:35:11.617Z,16.70
2018-05-25T23:37:39.176Z,16.70
2018-05-25T23:40:09.518Z,16.70
2018-05-25T23:42:37.078Z,16.60
2018-05-25T23:45:04.643Z,16.60
2018-05-25T23:47:32.253Z,16.60
2018-05-25T23:49:59.816Z,16.50
2018-05-25T23:52:27.379Z,16.50
2018-05-25T23:54:54.966Z,16.50
2018-05-25T23:57:22.531Z,16.40
2018-05-25T23:59:50.086Z,16.30
